sensor_id;sensor_type;location;lat;lon;timestamp;P1;durP1;ratioP1;P2;durP2;ratioP2
73089;SDS011;61269;49.450;8.610;2023-01-28T00:01:32;5.70;;;3.08;;
73089;SDS011;61269;49.450;8.610;2023-01-28T00:04:00;6.18;;;3.28;;
73089;SDS011;61269;49.450;8.610;2023-01-28T00:06:28;6.37;;;3.20;;
73089;SDS011;61269;49.450;8.610;2023-01-28T00:08:56;7.30;;;3.92;;
73089;SDS011;61269;49.450;8.610;2023-01-28T00:11:24;6.45;;;3.33;;
73089;SDS011;61269;49.450;8.610;2023-01-28T00:13:53;6.55;;;3.35;;
73089;SDS011;61269;49.450;8.610;2023-01-28T00:16:21;6.03;;;3.38;;
73089;SDS011;61269;49.450;8.610;2023-01-28T00:18:51;7.43;;;3.73;;
73089;SDS011;61269;49.450;8.610;2023-01-28T00:21:19;7.25;;;4.03;;
73089;SDS011;61269;49.450;8.610;2023-01-28T00:23:49;7.60;;;3.75;;
73089;SDS011;61269;49.450;8.610;2023-01-28T00:26:20;7.32;;;3.70;;
73089;SDS011;61269;49.450;8.610;2023-01-28T00:28:48;7.38;;;4.28;;
73089;SDS011;61269;49.450;8.610;2023-01-28T00:31:18;8.50;;;4.03;;
73089;SDS011;61269;49.450;8.610;2023-01-28T00:33:47;7.45;;;4.30;;
73089;SDS011;61269;49.450;8.610;2023-01-28T00:36:18;7.00;;;4.22;;
73089;SDS011;61269;49.450;8.610;2023-01-28T00:38:50;7.13;;;4.18;;
73089;SDS011;61269;49.450;8.610;2023-01-28T00:41:20;8.05;;;4.47;;
73089;SDS011;61269;49.450;8.610;2023-01-28T00:43:50;8.73;;;4.77;;
73089;SDS011;61269;49.450;8.610;2023-01-28T00:46:19;7.38;;;4.13;;
73089;SDS011;61269;49.450;8.610;2023-01-28T00:48:48;7.57;;;4.38;;
73089;SDS011;61269;49.450;8.610;2023-01-28T00:51:18;7.50;;;4.38;;
73089;SDS011;61269;49.450;8.610;2023-01-28T00:53:48;7.32;;;4.43;;
73089;SDS011;61269;49.450;8.610;2023-01-28T00:56:16;7.67;;;4.27;;
73089;SDS011;61269;49.450;8.610;2023-01-28T00:58:46;8.98;;;4.65;;
73089;SDS011;61269;49.450;8.610;2023-01-28T01:01:15;8.98;;;4.68;;
73089;SDS011;61269;49.450;8.610;2023-01-28T01:03:44;8.90;;;4.45;;
73089;SDS011;61269;49.450;8.610;2023-01-28T01:06:14;7.47;;;4.60;;
73089;SDS011;61269;49.450;8.610;2023-01-28T01:08:43;7.13;;;4.27;;
73089;SDS011;61269;49.450;8.610;2023-01-28T01:11:17;7.03;;;4.03;;
73089;SDS011;61269;49.450;8.610;2023-01-28T01:13:49;7.05;;;4.05;;
73089;SDS011;61269;49.450;8.610;2023-01-28T01:16:18;7.43;;;4.00;;
73089;SDS011;61269;49.450;8.610;2023-01-28T01:18:47;7.28;;;4.50;;
73089;SDS011;61269;49.450;8.610;2023-01-28T01:21:18;8.60;;;4.43;;
73089;SDS011;61269;49.450;8.610;2023-01-28T01:23:49;7.70;;;4.60;;
73089;SDS011;61269;49.450;8.610;2023-01-28T01:26:18;7.70;;;4.50;;
73089;SDS011;61269;49.450;8.610;2023-01-28T01:28:46;6.93;;;4.25;;
73089;SDS011;61269;49.450;8.610;2023-01-28T01:31:16;7.70;;;4.15;;
73089;SDS011;61269;49.450;8.610;2023-01-28T01:33:46;6.93;;;4.00;;
73089;SDS011;61269;49.450;8.610;2023-01-28T01:36:15;5.60;;;3.53;;
73089;SDS011;61269;49.450;8.610;2023-01-28T01:38:45;7.07;;;4.00;;
73089;SDS011;61269;49.450;8.610;2023-01-28T01:41:19;6.60;;;3.90;;
73089;SDS011;61269;49.450;8.610;2023-01-28T01:43:50;6.72;;;4.20;;
73089;SDS011;61269;49.450;8.610;2023-01-28T01:46:21;7.60;;;3.73;;
73089;SDS011;61269;49.450;8.610;2023-01-28T01:48:53;7.72;;;3.90;;
73089;SDS011;61269;49.450;8.610;2023-01-28T01:51:23;7.80;;;4.22;;
73089;SDS011;61269;49.450;8.610;2023-01-28T01:53:54;7.07;;;3.80;;
73089;SDS011;61269;49.450;8.610;2023-01-28T01:56:26;8.15;;;3.95;;
73089;SDS011;61269;49.450;8.610;2023-01-28T01:58:57;7.33;;;3.57;;
73089;SDS011;61269;49.450;8.610;2023-01-28T02:01:27;6.90;;;4.00;;
73089;SDS011;61269;49.450;8.610;2023-01-28T02:03:58;7.15;;;3.92;;
73089;SDS011;61269;49.450;8.610;2023-01-28T02:06:30;7.40;;;4.10;;
73089;SDS011;61269;49.450;8.610;2023-01-28T02:08:59;7.53;;;4.32;;
73089;SDS011;61269;49.450;8.610;2023-01-28T02:11:29;7.13;;;3.83;;
73089;SDS011;61269;49.450;8.610;2023-01-28T02:13:59;7.70;;;4.20;;
73089;SDS011;61269;49.450;8.610;2023-01-28T02:16:29;8.95;;;4.88;;
73089;SDS011;61269;49.450;8.610;2023-01-28T02:18:58;8.05;;;4.20;;
73089;SDS011;61269;49.450;8.610;2023-01-28T02:21:40;7.60;;;4.20;;
73089;SDS011;61269;49.450;8.610;2023-01-28T02:24:24;7.07;;;4.07;;
73089;SDS011;61269;49.450;8.610;2023-01-28T02:30:01;6.70;;;3.70;;
73089;SDS011;61269;49.450;8.610;2023-01-28T02:32:35;6.70;;;4.13;;
73089;SDS011;61269;49.450;8.610;2023-01-28T02:35:09;9.00;;;4.20;;
73089;SDS011;61269;49.450;8.610;2023-01-28T02:37:43;6.77;;;3.60;;
73089;SDS011;61269;49.450;8.610;2023-01-28T02:40:15;6.85;;;3.40;;
73089;SDS011;61269;49.450;8.610;2023-01-28T02:42:47;6.25;;;3.55;;
73089;SDS011;61269;49.450;8.610;2023-01-28T02:45:18;6.63;;;3.33;;
73089;SDS011;61269;49.450;8.610;2023-01-28T02:47:48;6.07;;;3.45;;
73089;SDS011;61269;49.450;8.610;2023-01-28T02:50:28;6.40;;;3.40;;
73089;SDS011;61269;49.450;8.610;2023-01-28T02:53:06;6.25;;;3.55;;
73089;SDS011;61269;49.450;8.610;2023-01-28T02:55:58;6.30;;;3.45;;
73089;SDS011;61269;49.450;8.610;2023-01-28T02:58:38;6.85;;;3.42;;
73089;SDS011;61269;49.450;8.610;2023-01-28T03:01:13;6.57;;;3.03;;
73089;SDS011;61269;49.450;8.610;2023-01-28T03:03:49;7.07;;;4.17;;
73089;SDS011;61269;49.450;8.610;2023-01-28T03:06:26;5.85;;;2.97;;
73089;SDS011;61269;49.450;8.610;2023-01-28T03:08:58;6.32;;;3.80;;
73089;SDS011;61269;49.450;8.610;2023-01-28T03:11:46;6.47;;;3.65;;
73089;SDS011;61269;49.450;8.610;2023-01-28T03:14:34;7.25;;;3.83;;
73089;SDS011;61269;49.450;8.610;2023-01-28T03:17:22;6.70;;;3.27;;
73089;SDS011;61269;49.450;8.610;2023-01-28T03:20:10;6.75;;;3.65;;
73089;SDS011;61269;49.450;8.610;2023-01-28T03:22:57;6.72;;;3.72;;
73089;SDS011;61269;49.450;8.610;2023-01-28T03:25:47;6.63;;;3.80;;
73089;SDS011;61269;49.450;8.610;2023-01-28T03:28:34;7.13;;;3.78;;
73089;SDS011;61269;49.450;8.610;2023-01-28T03:31:20;6.07;;;3.00;;
73089;SDS011;61269;49.450;8.610;2023-01-28T03:34:08;6.75;;;3.30;;
73089;SDS011;61269;49.450;8.610;2023-01-28T03:36:54;5.60;;;3.25;;
73089;SDS011;61269;49.450;8.610;2023-01-28T03:39:43;6.15;;;3.25;;
73089;SDS011;61269;49.450;8.610;2023-01-28T03:42:12;5.82;;;3.05;;
73089;SDS011;61269;49.450;8.610;2023-01-28T03:45:05;5.23;;;2.60;;
73089;SDS011;61269;49.450;8.610;2023-01-28T03:47:34;6.68;;;3.45;;
73089;SDS011;61269;49.450;8.610;2023-01-28T03:50:06;6.47;;;3.35;;
73089;SDS011;61269;49.450;8.610;2023-01-28T03:52:54;5.63;;;3.00;;
73089;SDS011;61269;49.450;8.610;2023-01-28T03:55:45;5.93;;;2.83;;
73089;SDS011;61269;49.450;8.610;2023-01-28T03:58:16;5.87;;;3.00;;
73089;SDS011;61269;49.450;8.610;2023-01-28T04:00:45;5.93;;;3.05;;
73089;SDS011;61269;49.450;8.610;2023-01-28T04:03:14;5.13;;;3.05;;
73089;SDS011;61269;49.450;8.610;2023-01-28T04:06:05;5.90;;;3.25;;
73089;SDS011;61269;49.450;8.610;2023-01-28T04:08:58;6.30;;;3.25;;
73089;SDS011;61269;49.450;8.610;2023-01-28T04:11:31;6.10;;;3.13;;
73089;SDS011;61269;49.450;8.610;2023-01-28T04:14:04;6.88;;;2.90;;
73089;SDS011;61269;49.450;8.610;2023-01-28T04:16:42;6.45;;;3.50;;
73089;SDS011;61269;49.450;8.610;2023-01-28T04:19:11;6.35;;;3.25;;
73089;SDS011;61269;49.450;8.610;2023-01-28T04:21:41;6.13;;;3.20;;
73089;SDS011;61269;49.450;8.610;2023-01-28T04:24:10;5.87;;;3.20;;
73089;SDS011;61269;49.450;8.610;2023-01-28T04:26:38;6.95;;;3.30;;
73089;SDS011;61269;49.450;8.610;2023-01-28T04:29:07;5.85;;;3.03;;
73089;SDS011;61269;49.450;8.610;2023-01-28T04:31:36;6.60;;;3.40;;
73089;SDS011;61269;49.450;8.610;2023-01-28T04:34:22;5.05;;;2.80;;
73089;SDS011;61269;49.450;8.610;2023-01-28T04:37:04;6.77;;;3.47;;
73089;SDS011;61269;49.450;8.610;2023-01-28T04:40:02;5.80;;;3.00;;
73089;SDS011;61269;49.450;8.610;2023-01-28T04:42:42;5.00;;;2.70;;
73089;SDS011;61269;49.450;8.610;2023-01-28T04:45:21;5.85;;;2.67;;
73089;SDS011;61269;49.450;8.610;2023-01-28T04:47:57;5.10;;;2.50;;
73089;SDS011;61269;49.450;8.610;2023-01-28T04:50:32;5.27;;;2.83;;
73089;SDS011;61269;49.450;8.610;2023-01-28T04:53:28;5.60;;;3.10;;
73089;SDS011;61269;49.450;8.610;2023-01-28T04:55:58;6.65;;;3.05;;
73089;SDS011;61269;49.450;8.610;2023-01-28T04:58:30;5.13;;;2.60;;
73089;SDS011;61269;49.450;8.610;2023-01-28T05:01:02;5.75;;;2.95;;
73089;SDS011;61269;49.450;8.610;2023-01-28T05:03:31;5.20;;;2.70;;
73089;SDS011;61269;49.450;8.610;2023-01-28T05:06:02;5.80;;;3.20;;
73089;SDS011;61269;49.450;8.610;2023-01-28T05:08:40;5.43;;;2.80;;
73089;SDS011;61269;49.450;8.610;2023-01-28T05:11:09;5.07;;;2.58;;
73089;SDS011;61269;49.450;8.610;2023-01-28T05:13:37;5.55;;;2.90;;
73089;SDS011;61269;49.450;8.610;2023-01-28T05:16:07;6.07;;;3.00;;
73089;SDS011;61269;49.450;8.610;2023-01-28T05:18:35;5.63;;;2.90;;
73089;SDS011;61269;49.450;8.610;2023-01-28T05:21:09;6.05;;;3.47;;
73089;SDS011;61269;49.450;8.610;2023-01-28T05:23:38;6.38;;;2.95;;
73089;SDS011;61269;49.450;8.610;2023-01-28T05:26:08;5.15;;;2.83;;
73089;SDS011;61269;49.450;8.610;2023-01-28T05:28:37;4.70;;;2.57;;
73089;SDS011;61269;49.450;8.610;2023-01-28T05:31:07;5.90;;;2.90;;
73089;SDS011;61269;49.450;8.610;2023-01-28T05:33:36;5.72;;;2.83;;
73089;SDS011;61269;49.450;8.610;2023-01-28T05:36:08;4.60;;;2.40;;
73089;SDS011;61269;49.450;8.610;2023-01-28T05:38:37;4.80;;;2.50;;
73089;SDS011;61269;49.450;8.610;2023-01-28T05:41:05;5.30;;;2.60;;
73089;SDS011;61269;49.450;8.610;2023-01-28T05:43:36;5.72;;;3.08;;
73089;SDS011;61269;49.450;8.610;2023-01-28T05:46:24;5.97;;;2.83;;
73089;SDS011;61269;49.450;8.610;2023-01-28T05:49:03;4.78;;;2.70;;
73089;SDS011;61269;49.450;8.610;2023-01-28T05:51:49;4.50;;;2.70;;
73089;SDS011;61269;49.450;8.610;2023-01-28T05:54:20;5.93;;;2.97;;
73089;SDS011;61269;49.450;8.610;2023-01-28T05:56:48;6.22;;;2.90;;
73089;SDS011;61269;49.450;8.610;2023-01-28T05:59:18;6.18;;;3.00;;
73089;SDS011;61269;49.450;8.610;2023-01-28T06:01:48;5.55;;;3.10;;
73089;SDS011;61269;49.450;8.610;2023-01-28T06:04:16;6.32;;;2.72;;
73089;SDS011;61269;49.450;8.610;2023-01-28T06:06:46;5.70;;;3.13;;
73089;SDS011;61269;49.450;8.610;2023-01-28T06:09:14;5.60;;;2.80;;
73089;SDS011;61269;49.450;8.610;2023-01-28T06:11:43;5.65;;;3.30;;
73089;SDS011;61269;49.450;8.610;2023-01-28T06:14:13;6.13;;;2.90;;
73089;SDS011;61269;49.450;8.610;2023-01-28T06:16:51;5.00;;;2.63;;
73089;SDS011;61269;49.450;8.610;2023-01-28T06:19:34;8.07;;;3.57;;
73089;SDS011;61269;49.450;8.610;2023-01-28T06:22:02;6.15;;;2.88;;
73089;SDS011;61269;49.450;8.610;2023-01-28T06:24:32;5.55;;;2.95;;
73089;SDS011;61269;49.450;8.610;2023-01-28T06:27:00;5.25;;;3.08;;
73089;SDS011;61269;49.450;8.610;2023-01-28T06:29:28;6.63;;;3.42;;
73089;SDS011;61269;49.450;8.610;2023-01-28T06:31:58;5.67;;;3.30;;
73089;SDS011;61269;49.450;8.610;2023-01-28T06:34:26;5.72;;;2.70;;
73089;SDS011;61269;49.450;8.610;2023-01-28T06:36:54;5.72;;;3.10;;
73089;SDS011;61269;49.450;8.610;2023-01-28T06:39:22;5.82;;;3.17;;
73089;SDS011;61269;49.450;8.610;2023-01-28T06:41:52;6.10;;;3.35;;
73089;SDS011;61269;49.450;8.610;2023-01-28T06:44:20;6.27;;;3.70;;
73089;SDS011;61269;49.450;8.610;2023-01-28T06:46:49;6.32;;;3.42;;
73089;SDS011;61269;49.450;8.610;2023-01-28T06:49:18;6.63;;;3.75;;
73089;SDS011;61269;49.450;8.610;2023-01-28T06:51:48;6.03;;;3.42;;
73089;SDS011;61269;49.450;8.610;2023-01-28T06:54:16;6.78;;;3.13;;
73089;SDS011;61269;49.450;8.610;2023-01-28T06:56:45;6.00;;;3.23;;
73089;SDS011;61269;49.450;8.610;2023-01-28T06:59:12;7.82;;;3.45;;
73089;SDS011;61269;49.450;8.610;2023-01-28T07:01:41;6.72;;;3.60;;
73089;SDS011;61269;49.450;8.610;2023-01-28T07:04:09;7.63;;;3.88;;
73089;SDS011;61269;49.450;8.610;2023-01-28T07:06:38;7.32;;;4.22;;
73089;SDS011;61269;49.450;8.610;2023-01-28T07:09:06;6.70;;;3.90;;
73089;SDS011;61269;49.450;8.610;2023-01-28T07:11:35;6.97;;;3.97;;
73089;SDS011;61269;49.450;8.610;2023-01-28T07:14:03;6.43;;;3.72;;
73089;SDS011;61269;49.450;8.610;2023-01-28T07:16:31;6.75;;;3.70;;
73089;SDS011;61269;49.450;8.610;2023-01-28T07:18:59;8.43;;;4.20;;
73089;SDS011;61269;49.450;8.610;2023-01-28T07:21:28;8.10;;;4.47;;
73089;SDS011;61269;49.450;8.610;2023-01-28T07:23:57;6.55;;;3.88;;
73089;SDS011;61269;49.450;8.610;2023-01-28T07:26:25;7.18;;;4.10;;
73089;SDS011;61269;49.450;8.610;2023-01-28T07:28:53;7.15;;;4.05;;
73089;SDS011;61269;49.450;8.610;2023-01-28T07:31:22;7.20;;;4.10;;
73089;SDS011;61269;49.450;8.610;2023-01-28T07:33:50;6.73;;;3.80;;
73089;SDS011;61269;49.450;8.610;2023-01-28T07:36:18;7.00;;;3.85;;
73089;SDS011;61269;49.450;8.610;2023-01-28T07:38:46;7.60;;;4.72;;
73089;SDS011;61269;49.450;8.610;2023-01-28T07:41:16;7.20;;;4.15;;
73089;SDS011;61269;49.450;8.610;2023-01-28T07:43:44;8.38;;;3.85;;
73089;SDS011;61269;49.450;8.610;2023-01-28T07:46:12;7.80;;;3.77;;
73089;SDS011;61269;49.450;8.610;2023-01-28T07:48:40;7.32;;;3.75;;
73089;SDS011;61269;49.450;8.610;2023-01-28T07:51:09;8.50;;;4.75;;
73089;SDS011;61269;49.450;8.610;2023-01-28T07:53:37;8.30;;;3.97;;
73089;SDS011;61269;49.450;8.610;2023-01-28T07:56:05;8.27;;;4.38;;
73089;SDS011;61269;49.450;8.610;2023-01-28T07:58:35;9.17;;;4.30;;
73089;SDS011;61269;49.450;8.610;2023-01-28T08:01:03;9.20;;;4.45;;
73089;SDS011;61269;49.450;8.610;2023-01-28T08:03:31;8.32;;;4.75;;
73089;SDS011;61269;49.450;8.610;2023-01-28T08:06:00;7.97;;;4.68;;
73089;SDS011;61269;49.450;8.610;2023-01-28T08:08:28;8.23;;;4.72;;
73089;SDS011;61269;49.450;8.610;2023-01-28T08:10:56;7.57;;;4.10;;
73089;SDS011;61269;49.450;8.610;2023-01-28T08:13:24;7.45;;;4.43;;
73089;SDS011;61269;49.450;8.610;2023-01-28T08:15:55;8.23;;;3.80;;
73089;SDS011;61269;49.450;8.610;2023-01-28T08:18:23;9.68;;;4.00;;
73089;SDS011;61269;49.450;8.610;2023-01-28T08:20:53;7.75;;;4.32;;
73089;SDS011;61269;49.450;8.610;2023-01-28T08:23:22;8.77;;;4.30;;
73089;SDS011;61269;49.450;8.610;2023-01-28T08:25:52;8.77;;;4.30;;
73089;SDS011;61269;49.450;8.610;2023-01-28T08:28:20;7.65;;;4.68;;
73089;SDS011;61269;49.450;8.610;2023-01-28T08:30:49;7.75;;;4.00;;
73089;SDS011;61269;49.450;8.610;2023-01-28T08:33:19;9.43;;;4.82;;
73089;SDS011;61269;49.450;8.610;2023-01-28T08:35:47;8.27;;;4.20;;
73089;SDS011;61269;49.450;8.610;2023-01-28T08:38:15;8.68;;;4.72;;
73089;SDS011;61269;49.450;8.610;2023-01-28T08:40:45;8.00;;;4.90;;
73089;SDS011;61269;49.450;8.610;2023-01-28T08:43:16;11.10;;;4.53;;
73089;SDS011;61269;49.450;8.610;2023-01-28T08:45:44;7.85;;;4.15;;
73089;SDS011;61269;49.450;8.610;2023-01-28T08:48:13;8.50;;;4.60;;
73089;SDS011;61269;49.450;8.610;2023-01-28T08:50:44;9.10;;;4.60;;
73089;SDS011;61269;49.450;8.610;2023-01-28T08:53:13;8.43;;;4.22;;
73089;SDS011;61269;49.450;8.610;2023-01-28T08:55:43;6.93;;;4.13;;
73089;SDS011;61269;49.450;8.610;2023-01-28T08:58:11;7.85;;;4.30;;
73089;SDS011;61269;49.450;8.610;2023-01-28T09:00:41;7.93;;;4.30;;
73089;SDS011;61269;49.450;8.610;2023-01-28T09:03:10;10.80;;;4.07;;
73089;SDS011;61269;49.450;8.610;2023-01-28T09:05:38;8.25;;;4.32;;
73089;SDS011;61269;49.450;8.610;2023-01-28T09:08:08;8.57;;;4.28;;
73089;SDS011;61269;49.450;8.610;2023-01-28T09:10:38;9.32;;;4.38;;
73089;SDS011;61269;49.450;8.610;2023-01-28T09:13:08;8.90;;;4.63;;
73089;SDS011;61269;49.450;8.610;2023-01-28T09:15:37;9.48;;;4.15;;
73089;SDS011;61269;49.450;8.610;2023-01-28T09:18:05;8.38;;;4.32;;
73089;SDS011;61269;49.450;8.610;2023-01-28T09:20:33;8.48;;;4.00;;
73089;SDS011;61269;49.450;8.610;2023-01-28T09:23:01;8.60;;;3.67;;
73089;SDS011;61269;49.450;8.610;2023-01-28T09:25:31;7.77;;;3.90;;
73089;SDS011;61269;49.450;8.610;2023-01-28T09:27:59;7.07;;;3.83;;
73089;SDS011;61269;49.450;8.610;2023-01-28T09:30:28;8.75;;;4.18;;
73089;SDS011;61269;49.450;8.610;2023-01-28T09:32:56;8.23;;;4.03;;
73089;SDS011;61269;49.450;8.610;2023-01-28T09:35:25;7.57;;;3.72;;
73089;SDS011;61269;49.450;8.610;2023-01-28T09:37:55;9.20;;;4.03;;
73089;SDS011;61269;49.450;8.610;2023-01-28T09:40:27;9.23;;;4.07;;
73089;SDS011;61269;49.450;8.610;2023-01-28T09:43:22;9.35;;;4.38;;
73089;SDS011;61269;49.450;8.610;2023-01-28T09:45:57;17.98;;;4.28;;
73089;SDS011;61269;49.450;8.610;2023-01-28T09:48:27;7.50;;;3.78;;
73089;SDS011;61269;49.450;8.610;2023-01-28T09:50:58;6.27;;;3.23;;
73089;SDS011;61269;49.450;8.610;2023-01-28T09:53:27;9.45;;;4.10;;
73089;SDS011;61269;49.450;8.610;2023-01-28T09:56:00;8.95;;;4.25;;
73089;SDS011;61269;49.450;8.610;2023-01-28T09:58:30;7.72;;;3.88;;
73089;SDS011;61269;49.450;8.610;2023-01-28T10:00:59;10.68;;;4.50;;
73089;SDS011;61269;49.450;8.610;2023-01-28T10:03:33;8.37;;;4.10;;
73089;SDS011;61269;49.450;8.610;2023-01-28T10:06:14;8.43;;;4.00;;
73089;SDS011;61269;49.450;8.610;2023-01-28T10:08:54;6.63;;;4.25;;
73089;SDS011;61269;49.450;8.610;2023-01-28T10:11:33;8.82;;;4.00;;
73089;SDS011;61269;49.450;8.610;2023-01-28T10:14:08;8.02;;;4.15;;
73089;SDS011;61269;49.450;8.610;2023-01-28T10:16:42;7.77;;;3.60;;
73089;SDS011;61269;49.450;8.610;2023-01-28T10:19:13;6.82;;;3.65;;
73089;SDS011;61269;49.450;8.610;2023-01-28T10:21:45;7.35;;;3.90;;
73089;SDS011;61269;49.450;8.610;2023-01-28T10:24:16;7.93;;;4.15;;
73089;SDS011;61269;49.450;8.610;2023-01-28T10:26:47;7.38;;;3.83;;
73089;SDS011;61269;49.450;8.610;2023-01-28T10:29:16;9.57;;;4.20;;
73089;SDS011;61269;49.450;8.610;2023-01-28T10:31:49;7.13;;;3.63;;
73089;SDS011;61269;49.450;8.610;2023-01-28T10:34:19;7.10;;;3.55;;
73089;SDS011;61269;49.450;8.610;2023-01-28T10:36:49;6.78;;;3.78;;
73089;SDS011;61269;49.450;8.610;2023-01-28T10:39:18;6.38;;;3.42;;
73089;SDS011;61269;49.450;8.610;2023-01-28T10:41:50;6.93;;;3.30;;
73089;SDS011;61269;49.450;8.610;2023-01-28T10:44:27;9.43;;;4.68;;
73089;SDS011;61269;49.450;8.610;2023-01-28T10:46:58;7.93;;;4.22;;
73089;SDS011;61269;49.450;8.610;2023-01-28T10:49:29;7.07;;;4.00;;
73089;SDS011;61269;49.450;8.610;2023-01-28T10:51:58;7.70;;;4.32;;
73089;SDS011;61269;49.450;8.610;2023-01-28T10:54:37;7.93;;;3.90;;
73089;SDS011;61269;49.450;8.610;2023-01-28T10:57:09;6.45;;;3.65;;
73089;SDS011;61269;49.450;8.610;2023-01-28T10:59:38;6.78;;;3.63;;
73089;SDS011;61269;49.450;8.610;2023-01-28T11:02:19;7.28;;;3.75;;
73089;SDS011;61269;49.450;8.610;2023-01-28T11:04:59;9.20;;;3.70;;
73089;SDS011;61269;49.450;8.610;2023-01-28T11:07:29;6.33;;;3.47;;
73089;SDS011;61269;49.450;8.610;2023-01-28T11:09:57;7.57;;;3.63;;
73089;SDS011;61269;49.450;8.610;2023-01-28T11:12:27;7.03;;;3.50;;
73089;SDS011;61269;49.450;8.610;2023-01-28T11:14:57;7.55;;;3.30;;
73089;SDS011;61269;49.450;8.610;2023-01-28T11:17:27;7.15;;;3.72;;
73089;SDS011;61269;49.450;8.610;2023-01-28T11:19:57;6.73;;;3.43;;
73089;SDS011;61269;49.450;8.610;2023-01-28T11:22:29;7.65;;;3.58;;
73089;SDS011;61269;49.450;8.610;2023-01-28T11:25:00;7.88;;;4.35;;
73089;SDS011;61269;49.450;8.610;2023-01-28T11:27:31;6.70;;;3.35;;
73089;SDS011;61269;49.450;8.610;2023-01-28T11:30:00;7.22;;;3.33;;
73089;SDS011;61269;49.450;8.610;2023-01-28T11:32:30;6.90;;;3.10;;
73089;SDS011;61269;49.450;8.610;2023-01-28T11:34:58;7.15;;;3.50;;
73089;SDS011;61269;49.450;8.610;2023-01-28T11:37:27;8.48;;;3.63;;
73089;SDS011;61269;49.450;8.610;2023-01-28T11:40:03;7.25;;;3.53;;
73089;SDS011;61269;49.450;8.610;2023-01-28T11:42:48;5.82;;;3.13;;
73089;SDS011;61269;49.450;8.610;2023-01-28T11:45:18;6.47;;;3.33;;
73089;SDS011;61269;49.450;8.610;2023-01-28T11:47:50;7.45;;;3.72;;
73089;SDS011;61269;49.450;8.610;2023-01-28T11:50:26;6.35;;;3.25;;
73089;SDS011;61269;49.450;8.610;2023-01-28T11:53:07;7.72;;;3.35;;
73089;SDS011;61269;49.450;8.610;2023-01-28T11:55:48;8.75;;;3.05;;
73089;SDS011;61269;49.450;8.610;2023-01-28T11:58:29;7.27;;;3.33;;
73089;SDS011;61269;49.450;8.610;2023-01-28T12:01:05;8.27;;;3.53;;
73089;SDS011;61269;49.450;8.610;2023-01-28T12:03:40;8.15;;;4.20;;
73089;SDS011;61269;49.450;8.610;2023-01-28T12:06:13;6.57;;;3.45;;
73089;SDS011;61269;49.450;8.610;2023-01-28T12:09:12;7.43;;;3.70;;
73089;SDS011;61269;49.450;8.610;2023-01-28T12:11:50;7.20;;;3.20;;
73089;SDS011;61269;49.450;8.610;2023-01-28T12:14:46;7.35;;;3.90;;
73089;SDS011;61269;49.450;8.610;2023-01-28T12:17:25;8.32;;;4.05;;
73089;SDS011;61269;49.450;8.610;2023-01-28T12:19:59;7.47;;;3.60;;
73089;SDS011;61269;49.450;8.610;2023-01-28T12:22:38;8.25;;;3.60;;
73089;SDS011;61269;49.450;8.610;2023-01-28T12:25:24;9.57;;;3.23;;
73089;SDS011;61269;49.450;8.610;2023-01-28T12:27:59;7.07;;;3.10;;
73089;SDS011;61269;49.450;8.610;2023-01-28T12:30:36;6.80;;;3.10;;
73089;SDS011;61269;49.450;8.610;2023-01-28T12:33:26;5.20;;;2.63;;
73089;SDS011;61269;49.450;8.610;2023-01-28T12:36:06;5.97;;;3.42;;
73089;SDS011;61269;49.450;8.610;2023-01-28T12:38:43;7.17;;;3.00;;
73089;SDS011;61269;49.450;8.610;2023-01-28T12:41:17;6.97;;;3.13;;
73089;SDS011;61269;49.450;8.610;2023-01-28T12:43:47;7.60;;;3.30;;
73089;SDS011;61269;49.450;8.610;2023-01-28T12:46:28;6.93;;;3.45;;
73089;SDS011;61269;49.450;8.610;2023-01-28T12:49:09;5.97;;;2.90;;
73089;SDS011;61269;49.450;8.610;2023-01-28T12:51:45;6.83;;;3.17;;
73089;SDS011;61269;49.450;8.610;2023-01-28T12:54:16;6.93;;;3.40;;
73089;SDS011;61269;49.450;8.610;2023-01-28T12:56:48;6.93;;;3.00;;
73089;SDS011;61269;49.450;8.610;2023-01-28T12:59:19;6.30;;;3.20;;
73089;SDS011;61269;49.450;8.610;2023-01-28T13:01:53;5.95;;;2.97;;
73089;SDS011;61269;49.450;8.610;2023-01-28T13:04:26;7.00;;;3.27;;
73089;SDS011;61269;49.450;8.610;2023-01-28T13:06:59;8.43;;;2.90;;
73089;SDS011;61269;49.450;8.610;2023-01-28T13:09:29;6.50;;;3.05;;
73089;SDS011;61269;49.450;8.610;2023-01-28T13:12:01;5.75;;;3.10;;
73089;SDS011;61269;49.450;8.610;2023-01-28T13:14:31;5.85;;;2.95;;
73089;SDS011;61269;49.450;8.610;2023-01-28T13:17:11;7.27;;;2.80;;
73089;SDS011;61269;49.450;8.610;2023-01-28T13:19:49;6.20;;;3.17;;
73089;SDS011;61269;49.450;8.610;2023-01-28T13:22:28;6.53;;;3.40;;
73089;SDS011;61269;49.450;8.610;2023-01-28T13:25:11;7.32;;;3.00;;
73089;SDS011;61269;49.450;8.610;2023-01-28T13:27:41;6.63;;;3.38;;
73089;SDS011;61269;49.450;8.610;2023-01-28T13:30:21;6.20;;;3.37;;
73089;SDS011;61269;49.450;8.610;2023-01-28T13:32:59;7.35;;;2.70;;
73089;SDS011;61269;49.450;8.610;2023-01-28T13:35:29;6.50;;;2.83;;
73089;SDS011;61269;49.450;8.610;2023-01-28T13:38:04;5.38;;;2.70;;
73089;SDS011;61269;49.450;8.610;2023-01-28T13:40:34;7.15;;;2.92;;
73089;SDS011;61269;49.450;8.610;2023-01-28T13:43:03;5.83;;;3.00;;
73089;SDS011;61269;49.450;8.610;2023-01-28T13:45:34;5.47;;;2.88;;
73089;SDS011;61269;49.450;8.610;2023-01-28T13:48:12;5.40;;;2.75;;
73089;SDS011;61269;49.450;8.610;2023-01-28T13:50:46;6.57;;;3.10;;
73089;SDS011;61269;49.450;8.610;2023-01-28T13:53:26;5.18;;;2.88;;
73089;SDS011;61269;49.450;8.610;2023-01-28T13:56:02;5.40;;;2.60;;
73089;SDS011;61269;49.450;8.610;2023-01-28T13:58:45;7.07;;;3.40;;
73089;SDS011;61269;49.450;8.610;2023-01-28T14:04:54;5.10;;;2.80;;
73089;SDS011;61269;49.450;8.610;2023-01-28T14:08:04;7.15;;;3.65;;
73089;SDS011;61269;49.450;8.610;2023-01-28T14:10:56;5.37;;;2.70;;
73089;SDS011;61269;49.450;8.610;2023-01-28T14:13:37;5.63;;;2.70;;
73089;SDS011;61269;49.450;8.610;2023-01-28T14:16:17;6.88;;;2.92;;
73089;SDS011;61269;49.450;8.610;2023-01-28T14:18:49;6.10;;;3.20;;
73089;SDS011;61269;49.450;8.610;2023-01-28T14:21:19;6.60;;;3.42;;
73089;SDS011;61269;49.450;8.610;2023-01-28T14:23:49;6.80;;;3.40;;
73089;SDS011;61269;49.450;8.610;2023-01-28T14:26:22;6.88;;;3.03;;
73089;SDS011;61269;49.450;8.610;2023-01-28T14:28:58;8.20;;;3.38;;
73089;SDS011;61269;49.450;8.610;2023-01-28T14:31:32;7.10;;;3.53;;
73089;SDS011;61269;49.450;8.610;2023-01-28T14:34:04;7.95;;;3.22;;
73089;SDS011;61269;49.450;8.610;2023-01-28T14:36:36;6.60;;;3.20;;
73089;SDS011;61269;49.450;8.610;2023-01-28T14:39:05;7.18;;;3.28;;
73089;SDS011;61269;49.450;8.610;2023-01-28T14:41:41;6.30;;;3.65;;
73089;SDS011;61269;49.450;8.610;2023-01-28T14:44:10;6.97;;;3.47;;
73089;SDS011;61269;49.450;8.610;2023-01-28T14:46:41;6.05;;;3.35;;
73089;SDS011;61269;49.450;8.610;2023-01-28T14:49:16;5.80;;;3.00;;
73089;SDS011;61269;49.450;8.610;2023-01-28T14:52:07;5.85;;;3.33;;
73089;SDS011;61269;49.450;8.610;2023-01-28T14:54:46;5.75;;;2.80;;
73089;SDS011;61269;49.450;8.610;2023-01-28T14:57:26;6.50;;;3.40;;
73089;SDS011;61269;49.450;8.610;2023-01-28T15:00:13;6.95;;;3.30;;
73089;SDS011;61269;49.450;8.610;2023-01-28T15:02:44;7.83;;;3.50;;
73089;SDS011;61269;49.450;8.610;2023-01-28T15:05:14;6.88;;;3.22;;
73089;SDS011;61269;49.450;8.610;2023-01-28T15:07:46;7.00;;;3.75;;
73089;SDS011;61269;49.450;8.610;2023-01-28T15:10:15;6.97;;;4.40;;
73089;SDS011;61269;49.450;8.610;2023-01-28T15:12:47;8.48;;;4.25;;
73089;SDS011;61269;49.450;8.610;2023-01-28T15:15:20;6.80;;;3.83;;
73089;SDS011;61269;49.450;8.610;2023-01-28T15:17:52;8.65;;;4.65;;
73089;SDS011;61269;49.450;8.610;2023-01-28T15:20:21;7.00;;;3.50;;
73089;SDS011;61269;49.450;8.610;2023-01-28T15:22:52;5.93;;;3.33;;
73089;SDS011;61269;49.450;8.610;2023-01-28T15:25:20;8.00;;;3.78;;
73089;SDS011;61269;49.450;8.610;2023-01-28T15:27:50;6.20;;;3.40;;
73089;SDS011;61269;49.450;8.610;2023-01-28T15:30:21;8.50;;;3.90;;